Time;durP1;ratioP1;P1;durP2;ratioP2;P2;SDS_P1;SDS_P2;PMS_P1;PMS_P2;Temp;Humidity;BMP_temperature;BMP_pressure;BME280_temperature;BME280_humidity;BME280_pressure;Samples;Min_cycle;Max_cycle;Signal;HPM_P1;HPM_P2
2023/08/31 00:00:09;;;;;;;12.75;9.80;;;13.80;99.90;;;;;;5071282;28;20403;-52
2023/08/31 00:02:35;;;;;;;14.02;10.50;;;13.80;99.90;;;;;;5071483;28;20020;-51
2023/08/31 00:05:01;;;;;;;11.88;9.32;;;13.80;99.90;;;;;;5071264;28;20016;-51
2023/08/31 00:07:27;;;;;;;13.48;10.15;;;13.90;99.90;;;;;;5063826;28;20020;-52
2023/08/31 00:09:52;;;;;;;12.35;9.25;;;13.80;99.90;;;;;;5071156;28;20081;-51
2023/08/31 00:12:19;;;;;;;11.82;9.38;;;13.80;99.90;;;;;;5069957;28;20024;-52
2023/08/31 00:14:44;;;;;;;14.25;10.73;;;13.80;99.90;;;;;;5071784;28;20028;-51
2023/08/31 00:17:10;;;;;;;13.55;11.10;;;13.90;99.90;;;;;;5071653;28;20417;-52
2023/08/31 00:19:35;;;;;;;15.23;9.95;;;13.90;99.90;;;;;;5071275;28;20248;-52
2023/08/31 00:22:01;;;;;;;14.05;9.90;;;13.90;99.90;;;;;;5071067;28;20032;-52
2023/08/31 00:24:31;;;;;;;17.10;11.55;;;13.80;99.90;;;;;;5071616;28;20025;-51
2023/08/31 00:26:57;;;;;;;14.15;9.98;;;13.80;99.90;;;;;;5071388;28;20012;-52
2023/08/31 00:29:23;;;;;;;13.63;11.13;;;13.80;99.90;;;;;;5070451;28;20028;-52
2023/08/31 00:31:51;;;;;;;13.60;9.38;;;13.70;99.90;;;;;;5071300;28;20530;-51
2023/08/31 00:34:17;;;;;;;20.00;11.00;;;13.70;99.90;;;;;;5070947;28;20024;-52
2023/08/31 00:36:43;;;;;;;18.45;12.13;;;13.70;99.90;;;;;;5071154;28;20047;-52
2023/08/31 00:39:10;;;;;;;16.38;11.88;;;13.70;99.90;;;;;;5069553;28;20033;-52
2023/08/31 00:41:36;;;;;;;15.88;11.10;;;13.70;99.90;;;;;;5070890;28;20032;-51
2023/08/31 00:44:04;;;;;;;14.77;12.13;;;13.70;99.90;;;;;;5070570;28;20023;-52
2023/08/31 00:46:31;;;;;;;16.48;11.57;;;13.70;99.90;;;;;;5070829;28;20016;-52
2023/08/31 00:48:57;;;;;;;23.98;12.40;;;13.70;99.90;;;;;;5070321;28;20023;-51
2023/08/31 00:51:23;;;;;;;19.15;12.50;;;13.70;99.90;;;;;;5069623;28;20021;-52
2023/08/31 00:53:53;;;;;;;18.17;11.57;;;13.70;99.90;;;;;;5070919;28;20032;-52
2023/08/31 00:56:19;;;;;;;17.55;12.95;;;13.70;99.90;;;;;;5070626;28;20024;-51
2023/08/31 00:58:46;;;;;;;17.65;11.73;;;13.70;99.90;;;;;;5070098;28;20540;-52
2023/08/31 01:01:39;;;;;;;17.80;12.10;;;13.70;99.90;;;;;;5069187;28;20028;-52
2023/08/31 01:04:23;;;;;;;20.95;12.27;;;13.70;99.90;;;;;;5062370;28;20028;-53
2023/08/31 01:07:02;;;;;;;16.77;12.90;;;13.70;99.90;;;;;;5070137;28;20020;-51
2023/08/31 01:09:31;;;;;;;17.50;12.77;;;13.60;99.90;;;;;;5069984;28;20099;-49
2023/08/31 01:12:29;;;;;;;18.42;12.77;;;13.60;99.90;;;;;;5070178;28;20753;-51
2023/08/31 01:15:02;;;;;;;18.27;12.73;;;13.60;99.90;;;;;;5066272;28;20033;-51
2023/08/31 01:17:30;;;;;;;19.00;12.65;;;13.60;99.90;;;;;;5068582;28;20532;-52
2023/08/31 01:19:59;;;;;;;23.00;15.02;;;13.60;99.90;;;;;;5068523;28;20493;-52
2023/08/31 01:22:30;;;;;;;23.15;14.75;;;13.60;99.90;;;;;;5068577;28;20028;-52
2023/08/31 01:24:58;;;;;;;19.73;14.00;;;13.50;99.90;;;;;;5070213;28;20092;-52
2023/08/31 01:27:23;;;;;;;22.73;14.45;;;13.50;99.90;;;;;;5070362;28;20728;-52
2023/08/31 01:29:49;;;;;;;17.70;12.88;;;13.50;99.90;;;;;;5069854;28;20016;-52
2023/08/31 01:32:15;;;;;;;19.55;14.00;;;13.50;99.90;;;;;;5070057;28;20029;-52
2023/08/31 01:34:40;;;;;;;19.98;12.70;;;13.40;99.90;;;;;;5068519;28;20092;-53
2023/08/31 01:37:13;;;;;;;20.15;13.80;;;13.40;99.90;;;;;;5066230;28;20112;-50
2023/08/31 01:39:51;;;;;;;23.17;14.40;;;13.40;99.90;;;;;;5069388;28;20107;-52
2023/08/31 01:42:17;;;;;;;25.17;14.40;;;13.40;99.90;;;;;;5069342;28;20048;-53
2023/08/31 01:44:44;;;;;;;24.33;14.02;;;13.30;99.90;;;;;;5069683;28;20059;-53
2023/08/31 01:47:10;;;;;;;20.17;13.65;;;13.30;99.90;;;;;;5069744;28;20090;-53
2023/08/31 01:49:39;;;;;;;20.40;14.30;;;13.20;99.90;;;;;;5069303;28;20013;-52
2023/08/31 01:52:06;;;;;;;19.25;13.35;;;13.20;99.90;;;;;;5069706;28;20039;-54
2023/08/31 01:54:32;;;;;;;21.63;14.02;;;13.10;99.90;;;;;;5070168;28;20021;-53
2023/08/31 01:56:57;;;;;;;17.33;13.20;;;13.10;99.90;;;;;;5068271;28;20270;-53
2023/08/31 01:59:23;;;;;;;25.17;14.10;;;13.10;99.90;;;;;;5058948;28;20067;-53
2023/08/31 02:01:48;;;;;;;20.23;13.65;;;13.10;99.90;;;;;;5058649;28;20032;-52
2023/08/31 02:04:14;;;;;;;18.40;13.48;;;13.10;99.90;;;;;;5056556;28;20099;-51
2023/08/31 02:06:40;;;;;;;19.42;14.10;;;13.00;99.90;;;;;;5056537;28;20036;-51
2023/08/31 02:09:06;;;;;;;20.98;14.20;;;13.00;99.90;;;;;;5065309;28;20021;-53
2023/08/31 02:11:35;;;;;;;20.88;13.20;;;13.00;99.90;;;;;;5069404;28;20110;-52
2023/08/31 02:14:00;;;;;;;18.85;13.13;;;13.00;99.90;;;;;;5069332;28;20027;-52
2023/08/31 02:16:26;;;;;;;23.67;13.88;;;13.00;99.90;;;;;;5067883;28;20029;-53
2023/08/31 02:18:51;;;;;;;24.83;13.45;;;12.90;99.90;;;;;;5068948;28;20025;-53
2023/08/31 02:21:17;;;;;;;21.08;13.60;;;12.90;99.90;;;;;;5069072;28;20029;-52
2023/08/31 02:23:42;;;;;;;23.75;13.38;;;12.90;99.90;;;;;;5069198;28;20025;-53
2023/08/31 02:26:08;;;;;;;22.83;15.68;;;12.90;99.90;;;;;;5067896;28;20416;-55
2023/08/31 02:28:33;;;;;;;22.90;13.80;;;12.80;99.90;;;;;;5068669;28;20083;-53
2023/08/31 02:31:01;;;;;;;23.63;15.48;;;12.80;99.90;;;;;;5069389;28;20025;-52
2023/08/31 02:33:26;;;;;;;19.67;13.75;;;12.80;99.90;;;;;;5069139;28;20375;-52
2023/08/31 02:35:53;;;;;;;17.33;13.63;;;12.80;99.90;;;;;;5069125;28;20050;-53
2023/08/31 02:38:18;;;;;;;23.63;15.15;;;12.80;99.90;;;;;;5068533;28;20072;-53
2023/08/31 02:40:47;;;;;;;21.58;15.13;;;12.70;99.90;;;;;;5067782;28;20403;-52
2023/08/31 02:43:13;;;;;;;21.13;14.43;;;12.70;99.90;;;;;;5068825;28;20085;-52
2023/08/31 02:45:38;;;;;;;21.15;13.98;;;12.70;99.90;;;;;;5069167;28;20031;-52
2023/08/31 02:48:06;;;;;;;17.45;12.88;;;12.60;99.90;;;;;;5065384;28;20017;-52
2023/08/31 02:50:31;;;;;;;23.15;14.45;;;12.60;99.90;;;;;;5068827;28;20021;-53
2023/08/31 02:52:57;;;;;;;27.02;15.50;;;12.60;99.90;;;;;;5068872;28;20021;-52
2023/08/31 02:55:22;;;;;;;22.88;15.43;;;12.60;99.90;;;;;;5068881;28;20548;-53
2023/08/31 02:57:48;;;;;;;24.67;15.02;;;12.60;99.90;;;;;;5069045;28;20059;-52
2023/08/31 03:00:15;;;;;;;30.75;15.82;;;12.50;99.90;;;;;;5068463;28;20032;-54
2023/08/31 03:02:40;;;;;;;24.60;15.40;;;12.50;99.90;;;;;;5070068;28;20016;-52
2023/08/31 03:05:06;;;;;;;18.70;14.48;;;12.50;99.90;;;;;;5072657;28;20025;-52
2023/08/31 03:07:32;;;;;;;21.92;14.82;;;12.50;99.90;;;;;;5071807;28;20023;-53
2023/08/31 03:09:57;;;;;;;25.80;16.10;;;12.50;99.90;;;;;;5070846;28;20021;-53
2023/08/31 03:12:23;;;;;;;28.25;17.20;;;12.50;99.90;;;;;;5072689;28;20032;-52
2023/08/31 03:14:48;;;;;;;28.40;18.10;;;12.40;99.90;;;;;;5061167;28;20517;-54
2023/08/31 03:17:14;;;;;;;26.63;15.65;;;12.50;99.90;;;;;;5072738;28;20382;-54
2023/08/31 03:19:39;;;;;;;28.50;17.10;;;12.40;99.90;;;;;;5072054;28;20017;-53
2023/08/31 03:22:05;;;;;;;28.30;16.77;;;12.40;99.90;;;;;;5072155;28;20481;-54
2023/08/31 03:24:32;;;;;;;30.70;17.08;;;12.40;99.90;;;;;;5072134;28;20470;-54
2023/08/31 03:26:58;;;;;;;26.40;17.45;;;12.40;99.90;;;;;;5072186;28;20039;-55
2023/08/31 03:29:23;;;;;;;26.67;16.73;;;12.40;99.90;;;;;;5071939;28;20021;-55
2023/08/31 03:31:49;;;;;;;28.67;17.05;;;12.40;99.90;;;;;;5072331;28;20074;-53
2023/08/31 03:34:15;;;;;;;27.55;16.75;;;12.40;99.90;;;;;;5072178;28;20028;-54
2023/08/31 03:36:41;;;;;;;26.33;16.20;;;12.40;99.90;;;;;;5071993;28;20482;-54
2023/08/31 03:39:06;;;;;;;30.33;16.48;;;12.30;99.90;;;;;;5070033;28;20428;-54
2023/08/31 03:41:32;;;;;;;25.83;16.40;;;12.30;99.90;;;;;;5071698;28;20024;-53
2023/08/31 03:43:57;;;;;;;34.30;18.90;;;12.30;99.90;;;;;;5071727;28;20021;-55
2023/08/31 03:46:24;;;;;;;30.33;16.80;;;12.30;99.90;;;;;;5072030;28;20024;-53
2023/08/31 03:48:49;;;;;;;29.63;17.88;;;12.30;99.90;;;;;;5071473;28;20083;-53
2023/08/31 03:51:15;;;;;;;32.03;17.15;;;12.30;99.90;;;;;;5071538;28;20028;-53
2023/08/31 03:53:40;;;;;;;27.65;16.92;;;12.30;99.90;;;;;;5071687;28;20048;-52
2023/08/31 03:56:06;;;;;;;26.58;17.10;;;12.30;99.90;;;;;;5070481;28;20070;-52
2023/08/31 03:58:31;;;;;;;27.13;17.33;;;12.30;99.90;;;;;;5071375;28;20104;-52
2023/08/31 04:00:57;;;;;;;22.08;14.10;;;12.30;99.90;;;;;;5071559;28;20061;-53
2023/08/31 04:03:23;;;;;;;33.10;18.42;;;12.30;99.90;;;;;;5071945;28;20025;-52
2023/08/31 04:05:54;;;;;;;26.80;17.58;;;12.20;99.90;;;;;;5071531;28;20017;-53
2023/08/31 04:08:20;;;;;;;;;;;12.30;99.90;;;;;;5071503;28;20021;-53
2023/08/31 04:10:45;;;;;;;25.27;15.80;;;12.20;99.90;;;;;;5071653;28;20289;-54
2023/08/31 04:13:11;;;;;;;27.48;16.67;;;12.20;99.90;;;;;;5071028;28;20028;-53
2023/08/31 04:15:36;;;;;;;30.35;16.60;;;12.20;99.90;;;;;;5070435;28;20028;-52
2023/08/31 04:18:02;;;;;;;38.72;18.23;;;12.20;99.90;;;;;;5070956;28;20032;-51
2023/08/31 04:20:28;;;;;;;31.30;16.75;;;12.20;99.90;;;;;;5069732;28;20033;-52
2023/08/31 04:22:53;;;;;;;28.58;15.32;;;12.20;99.90;;;;;;5071180;28;20020;-53
2023/08/31 04:25:19;;;;;;;27.65;18.13;;;12.20;99.90;;;;;;5071370;28;20059;-52
2023/08/31 04:27:45;;;;;;;24.65;15.82;;;12.20;99.90;;;;;;5070976;28;20028;-53
2023/08/31 04:30:11;;;;;;;33.38;17.67;;;12.20;99.90;;;;;;5070531;28;20096;-54
2023/08/31 04:32:37;;;;;;;30.50;16.05;;;12.20;99.90;;;;;;5070845;28;20059;-54
2023/08/31 04:35:05;;;;;;;26.08;15.85;;;12.20;99.90;;;;;;5071190;28;20048;-54
2023/08/31 04:37:31;;;;;;;25.98;17.20;;;12.20;99.90;;;;;;5058979;28;20505;-54
2023/08/31 04:39:57;;;;;;;24.95;15.63;;;12.20;99.90;;;;;;5059680;28;20033;-54
2023/08/31 04:42:23;;;;;;;24.42;16.10;;;12.20;99.90;;;;;;5056899;28;20033;-54
2023/08/31 04:44:49;;;;;;;25.67;16.42;;;12.20;99.90;;;;;;5057035;28;20062;-53
2023/08/31 04:47:15;;;;;;;25.55;16.17;;;12.20;99.90;;;;;;5069399;28;20107;-54
2023/08/31 04:49:40;;;;;;;28.00;18.60;;;12.20;99.90;;;;;;5070136;28;20016;-53
2023/08/31 04:52:06;;;;;;;30.45;16.27;;;12.20;99.90;;;;;;5069093;28;20523;-54
2023/08/31 04:54:31;;;;;;;22.75;13.73;;;12.20;99.90;;;;;;5070381;28;20031;-54
2023/08/31 04:56:57;;;;;;;26.42;16.52;;;12.30;99.90;;;;;;5070612;28;20038;-54
2023/08/31 05:06:07;;;;;;;22.38;13.50;;;12.30;99.90;;;;;;5062346;28;20564;-54
2023/08/31 05:08:33;;;;;;;20.45;12.25;;;12.30;99.90;;;;;;5069973;28;20056;-55
2023/08/31 05:10:59;;;;;;;24.60;15.52;;;12.30;99.90;;;;;;5068894;28;20055;-54
2023/08/31 05:13:24;;;;;;;27.45;15.15;;;12.30;99.90;;;;;;5070120;28;20270;-53
2023/08/31 05:15:50;;;;;;;23.10;12.82;;;12.40;99.90;;;;;;5069893;28;20013;-54
2023/08/31 05:18:15;;;;;;;27.52;15.13;;;12.40;99.90;;;;;;5069437;28;20029;-53
2023/08/31 05:20:45;;;;;;;18.85;12.63;;;12.40;99.90;;;;;;5070310;28;20385;-53
2023/08/31 05:23:11;;;;;;;22.27;13.40;;;12.40;99.90;;;;;;5070134;28;20052;-54
2023/08/31 05:25:41;;;;;;;18.92;11.77;;;12.50;99.90;;;;;;5069561;28;20523;-54
2023/08/31 05:28:07;;;;;;;23.30;14.10;;;12.50;99.90;;;;;;5069020;28;20029;-54
2023/08/31 05:30:34;;;;;;;25.15;13.30;;;12.60;99.90;;;;;;5069080;28;20493;-54
2023/08/31 05:33:00;;;;;;;18.60;11.63;;;12.50;99.90;;;;;;5065870;28;20027;-55
2023/08/31 05:35:25;;;;;;;22.40;11.70;;;12.50;99.90;;;;;;5068282;28;20100;-54
2023/08/31 05:37:51;;;;;;;25.27;12.20;;;12.50;99.90;;;;;;5063261;28;20331;-54
2023/08/31 05:40:18;;;;;;;21.33;12.38;;;12.50;99.90;;;;;;5069168;28;20036;-54
2023/08/31 05:42:43;;;;;;;17.67;11.75;;;12.60;99.90;;;;;;5068642;28;20070;-54
2023/08/31 05:45:09;;;;;;;15.23;11.00;;;12.50;99.90;;;;;;5070297;28;20169;-52
2023/08/31 05:47:35;;;;;;;18.98;11.95;;;12.60;99.90;;;;;;5069763;28;20059;-53
2023/08/31 05:50:01;;;;;;;15.35;11.93;;;12.60;99.90;;;;;;5069336;28;20020;-53
2023/08/31 05:52:27;;;;;;;19.67;12.25;;;12.60;99.90;;;;;;5069569;28;20077;-52
2023/08/31 05:54:52;;;;;;;20.80;12.98;;;12.60;99.90;;;;;;5069499;28;20062;-53
2023/08/31 05:57:19;;;;;;;17.77;10.88;;;12.60;99.90;;;;;;5068159;28;20029;-53
2023/08/31 05:59:45;;;;;;;17.58;11.18;;;12.60;99.90;;;;;;5069463;28;20523;-52
2023/08/31 06:05:33;;;;;;;23.73;12.32;;;12.70;99.90;;;;;;5061260;28;20031;-52
2023/08/31 06:07:58;;;;;;;16.38;10.45;;;12.80;99.90;;;;;;5059076;28;20311;-53
2023/08/31 06:10:24;;;;;;;19.00;10.93;;;12.80;99.90;;;;;;5060523;28;20425;-53
2023/08/31 06:12:50;;;;;;;18.63;11.65;;;12.90;99.90;;;;;;5058443;28;20938;-52
2023/08/31 06:15:17;;;;;;;21.63;12.13;;;12.90;99.90;;;;;;5057691;28;20024;-52
2023/08/31 06:17:42;;;;;;;22.10;11.18;;;12.90;99.90;;;;;;5062830;28;20432;-52
2023/08/31 06:20:08;;;;;;;18.42;12.68;;;13.00;99.90;;;;;;5069128;28;20029;-52
2023/08/31 06:22:34;;;;;;;24.63;14.02;;;13.00;99.90;;;;;;5069446;28;20079;-53
2023/08/31 06:25:00;;;;;;;16.30;11.75;;;13.00;99.90;;;;;;5069228;28;20020;-56
2023/08/31 07:03:06;;;;;;;17.52;11.85;;;14.00;99.90;;;;;;5026603;28;20083;-50
2023/08/31 07:05:35;;;;;;;22.63;13.40;;;14.10;99.90;;;;;;5030799;28;20032;-51
2023/08/31 07:08:02;;;;;;;19.42;12.07;;;14.20;99.90;;;;;;5011285;28;20084;-50
2023/08/31 07:10:27;;;;;;;21.48;12.70;;;14.20;99.90;;;;;;5026559;28;20029;-52
2023/08/31 07:12:53;;;;;;;19.13;11.73;;;14.30;99.90;;;;;;5030025;28;20022;-52
2023/08/31 07:15:18;;;;;;;19.77;12.57;;;14.30;99.90;;;;;;5030947;28;20064;-52
2023/08/31 07:17:44;;;;;;;19.55;13.10;;;14.30;99.90;;;;;;5031122;28;20029;-49
2023/08/31 07:20:10;;;;;;;18.23;11.55;;;14.20;99.90;;;;;;5031829;28;20036;-51
2023/08/31 07:22:37;;;;;;;18.38;11.95;;;14.30;99.90;;;;;;5032012;28;20414;-52
2023/08/31 07:25:03;;;;;;;15.18;11.73;;;14.50;99.90;;;;;;5032528;28;20096;-51
2023/08/31 07:27:29;;;;;;;17.05;11.55;;;14.70;99.90;;;;;;5032415;28;20022;-49
2023/08/31 07:43:23;;;;;;;10.73;7.95;;;16.40;99.90;;;;;;5025906;28;20045;-52
2023/08/31 07:45:49;;;;;;;14.15;6.80;;;17.20;99.90;;;;;;5012190;28;20030;-51
2023/08/31 07:48:15;;;;;;;11.43;6.32;;;17.40;99.90;;;;;;5024796;28;20084;-52
2023/08/31 07:50:41;;;;;;;9.57;6.63;;;17.80;99.90;;;;;;5032018;28;20032;-52
2023/08/31 07:53:07;;;;;;;9.90;6.53;;;17.70;99.90;;;;;;5031679;28;20108;-52
2023/08/31 07:55:39;;;;;;;10.60;6.10;;;17.50;99.90;;;;;;5030485;28;20168;-52
2023/08/31 07:58:04;;;;;;;11.15;6.63;;;17.80;99.90;;;;;;5031852;28;20035;-49
2023/08/31 08:00:30;;;;;;;12.30;6.18;;;17.90;99.90;;;;;;5031748;28;20029;-49
2023/08/31 08:02:55;;;;;;;11.65;5.85;;;18.10;99.90;;;;;;5031451;28;20399;-50
2023/08/31 08:05:21;;;;;;;10.95;5.63;;;19.00;99.90;;;;;;5047185;28;20370;-49
2023/08/31 08:07:47;;;;;;;10.15;5.22;;;19.40;99.90;;;;;;5031806;28;20028;-50
2023/08/31 08:10:12;;;;;;;8.90;5.13;;;20.00;99.90;;;;;;5031868;28;20071;-50
2023/08/31 08:12:39;;;;;;;8.02;4.25;;;20.20;99.90;;;;;;5046310;28;20514;-49
2023/08/31 08:15:07;;;;;;;8.52;5.07;;;20.00;99.90;;;;;;5046711;28;20026;-50
2023/08/31 08:17:32;;;;;;;6.28;3.90;;;19.90;99.90;;;;;;5031697;28;20032;-48
2023/08/31 08:19:58;;;;;;;5.50;3.95;;;19.90;99.90;;;;;;5030858;28;20414;-49
2023/08/31 08:22:24;;;;;;;7.75;4.13;;;19.70;99.90;;;;;;5030907;28;20036;-48
2023/08/31 08:24:50;;;;;;;8.57;4.30;;;19.20;99.90;;;;;;5031039;28;20034;-47
2023/08/31 08:27:17;;;;;;;10.50;4.30;;;19.10;99.90;;;;;;5031059;28;20415;-48
2023/08/31 08:29:43;;;;;;;6.07;3.38;;;19.20;99.90;;;;;;5031175;28;20025;-49
2023/08/31 08:32:09;;;;;;;5.43;4.13;;;18.80;99.90;;;;;;5030889;28;20029;-48
2023/08/31 08:34:34;;;;;;;6.78;4.40;;;18.70;99.90;;;;;;5030842;28;20667;-48
2023/08/31 08:37:00;;;;;;;7.20;3.90;;;18.70;99.90;;;;;;5029835;28;20036;-48
2023/08/31 08:39:25;;;;;;;5.05;3.40;;;18.70;99.90;;;;;;5046475;28;20026;-48
2023/08/31 08:41:54;;;;;;;6.18;3.00;;;19.60;99.90;;;;;;5029193;28;20052;-49
2023/08/31 08:44:25;;;;;;;5.00;3.28;;;19.80;99.90;;;;;;5030167;28;20022;-49
2023/08/31 08:46:51;;;;;;;6.90;3.50;;;19.90;99.50;;;;;;5030556;28;20049;-48
2023/08/31 08:49:19;;;;;;;3.78;3.38;;;19.20;99.90;;;;;;5014110;28;20491;-49
2023/08/31 08:51:46;;;;;;;5.90;3.75;;;18.60;99.90;;;;;;5012894;28;20037;-49
2023/08/31 08:54:13;;;;;;;6.90;3.58;;;18.00;99.90;;;;;;5016206;28;20160;-48
2023/08/31 08:56:39;;;;;;;9.23;4.43;;;17.90;99.90;;;;;;5008654;28;20077;-48
2023/08/31 08:59:05;;;;;;;7.38;3.80;;;17.80;99.90;;;;;;5009527;28;20045;-48
2023/08/31 09:01:33;;;;;;;6.40;3.50;;;18.10;99.90;;;;;;5009092;28;20053;-48
2023/08/31 09:03:58;;;;;;;4.43;2.95;;;18.90;99.90;;;;;;5011994;28;20383;-48
2023/08/31 09:06:24;;;;;;;5.07;2.83;;;19.40;99.90;;;;;;5015050;28;20026;-50
2023/08/31 09:08:57;;;;;;;6.57;2.97;;;19.70;99.90;;;;;;5017038;28;20034;-50
2023/08/31 09:11:23;;;;;;;5.05;2.72;;;20.10;99.00;;;;;;5016060;28;20018;-50
2023/08/31 09:13:50;;;;;;;3.03;1.95;;;21.00;97.60;;;;;;5041883;28;20021;-50
2023/08/31 09:16:28;;;;;;;4.18;2.50;;;21.80;96.40;;;;;;5030299;28;20049;-50
2023/08/31 09:18:58;;;;;;;3.22;1.73;;;22.90;92.90;;;;;;5045548;28;20021;-50
2023/08/31 09:21:35;;;;;;;5.83;2.07;;;23.90;91.30;;;;;;5030479;28;20049;-48
2023/08/31 09:24:02;;;;;;;3.17;1.80;;;25.20;87.00;;;;;;5029590;28;20024;-51
2023/08/31 09:26:27;;;;;;;3.53;1.83;;;24.70;85.50;;;;;;5045865;28;20418;-50
2023/08/31 09:28:53;;;;;;;3.83;1.40;;;24.30;87.50;;;;;;5029679;28;20021;-50
2023/08/31 09:31:19;;;;;;;2.53;1.85;;;24.60;87.60;;;;;;5027646;28;20391;-50
2023/08/31 09:33:52;;;;;;;2.00;1.60;;;24.20;86.20;;;;;;5028968;28;20026;-49
2023/08/31 09:36:18;;;;;;;3.42;1.92;;;24.20;87.30;;;;;;5029017;28;20519;-49
2023/08/31 09:45:33;;;;;;;1.58;1.30;;;25.30;81.20;;;;;;5029959;28;20110;-50
2023/08/31 09:48:00;;;;;;;2.78;1.17;;;26.20;79.80;;;;;;5044498;28;20371;-49
2023/08/31 09:50:33;;;;;;;5.18;1.70;;;26.60;79.50;;;;;;5044652;28;20033;-50
2023/08/31 09:53:03;;;;;;;3.50;1.30;;;27.20;79.00;;;;;;5028783;28;20147;-51
2023/08/31 09:55:30;;;;;;;3.30;1.45;;;27.30;74.60;;;;;;5029305;28;20021;-51
2023/08/31 09:57:58;;;;;;;1.92;1.20;;;27.80;75.70;;;;;;5028921;28;20438;-49
2023/08/31 10:00:26;;;;;;;2.40;1.48;;;27.40;75.30;;;;;;5021412;28;20109;-51
2023/08/31 10:02:55;;;;;;;3.50;1.50;;;27.80;72.60;;;;;;5026526;28;20045;-51
2023/08/31 10:05:22;;;;;;;7.87;1.83;;;26.40;74.10;;;;;;5029198;28;20093;-50
2023/08/31 10:07:49;;;;;;;3.65;1.50;;;25.20;75.00;;;;;;5042550;28;20032;-48
2023/08/31 10:10:16;;;;;;;2.45;1.40;;;24.30;79.90;;;;;;5009040;28;20026;-48
2023/08/31 10:12:43;;;;;;;3.13;1.98;;;23.30;80.80;;;;;;5008071;28;20029;-47
2023/08/31 10:15:10;;;;;;;3.35;1.67;;;22.20;83.70;;;;;;5010391;28;20422;-49
2023/08/31 10:17:36;;;;;;;5.43;1.90;;;22.20;86.10;;;;;;5025686;28;20033;-48
2023/08/31 10:20:02;;;;;;;2.47;1.27;;;21.90;85.10;;;;;;5026052;28;20060;-50
2023/08/31 10:22:29;;;;;;;2.42;1.27;;;23.50;85.30;;;;;;5017752;28;20048;-50
2023/08/31 10:25:03;;;;;;;4.82;1.38;;;23.90;82.90;;;;;;5028575;28;20510;-49
2023/08/31 10:27:39;;;;;;;4.40;1.52;;;23.60;81.00;;;;;;5029183;28;20029;-50
2023/08/31 10:30:23;;;;;;;3.10;1.67;;;24.00;81.20;;;;;;5029271;28;20083;-50
2023/08/31 10:33:07;;;;;;;3.00;1.48;;;23.40;81.00;;;;;;5044053;28;20459;-47
2023/08/31 10:35:48;;;;;;;3.78;1.63;;;22.90;81.90;;;;;;5029178;28;20145;-50
2023/08/31 10:38:14;;;;;;;2.72;1.58;;;23.30;82.00;;;;;;5044399;28;20750;-48
2023/08/31 10:40:40;;;;;;;5.90;1.48;;;24.60;80.20;;;;;;5024197;28;20040;-50
2023/08/31 10:43:16;;;;;;;2.95;1.55;;;24.70;79.30;;;;;;5017442;28;20495;-49
2023/08/31 10:45:45;;;;;;;4.70;1.40;;;24.30;81.30;;;;;;5018357;28;20433;-50
2023/08/31 10:48:10;;;;;;;2.58;1.25;;;23.90;81.30;;;;;;5017061;28;20036;-48
2023/08/31 10:50:42;;;;;;;3.78;1.55;;;24.70;81.40;;;;;;5023433;28;20026;-50
2023/08/31 10:53:13;;;;;;;3.72;1.70;;;25.00;77.80;;;;;;5023382;28;20137;-51
2023/08/31 10:59:01;;;;;;;2.10;1.30;;;25.20;76.30;;;;;;5011646;28;20422;-48
2023/08/31 11:01:51;;;;;;;2.83;1.27;;;24.50;77.40;;;;;;5021802;28;20109;-49
2023/08/31 11:04:17;;;;;;;;;;;24.60;79.20;;;;;;5021658;28;20503;-48
2023/08/31 11:06:42;;;;;;;6.45;1.30;;;24.90;77.20;;;;;;5021516;28;19905;-49
2023/08/31 11:09:21;;;;;;;1.10;1.00;;;25.30;76.90;;;;;;5028709;28;20585;-50
2023/08/31 11:11:48;;;;;;;2.60;1.40;;;26.00;79.00;;;;;;5028454;28;20341;-50
2023/08/31 11:14:13;;;;;;;3.47;1.27;;;26.90;73.30;;;;;;5028436;28;20029;-51
2023/08/31 11:16:39;;;;;;;3.53;1.48;;;27.20;72.90;;;;;;5028589;28;20545;-47
2023/08/31 11:19:05;;;;;;;8.45;1.95;;;26.80;71.50;;;;;;5028834;28;20017;-49
2023/08/31 11:21:31;;;;;;;8.05;2.35;;;25.30;74.60;;;;;;5020989;28;20028;-47
2023/08/31 11:23:58;;;;;;;4.20;1.48;;;24.40;76.60;;;;;;5044601;28;20121;-48
2023/08/31 11:26:25;;;;;;;2.58;1.30;;;24.00;77.10;;;;;;5032519;28;20096;-47
2023/08/31 11:28:51;;;;;;;3.42;1.35;;;23.50;79.50;;;;;;5047541;28;20080;-50
2023/08/31 11:31:24;;;;;;;8.82;2.05;;;22.60;81.60;;;;;;5031785;28;20033;-50
2023/08/31 11:33:49;;;;;;;4.22;1.83;;;22.10;84.70;;;;;;5031463;28;20367;-50
2023/08/31 11:36:17;;;;;;;2.85;1.58;;;21.80;83.90;;;;;;5032083;28;20028;-49
2023/08/31 11:38:43;;;;;;;4.90;1.98;;;22.30;83.20;;;;;;5031904;28;20113;-49
2023/08/31 11:41:09;;;;;;;8.57;2.53;;;21.80;82.90;;;;;;5032274;28;20024;-50
2023/08/31 11:43:36;;;;;;;4.70;1.65;;;22.00;84.60;;;;;;5031747;28;20378;-50
2023/08/31 11:46:04;;;;;;;3.78;2.30;;;21.90;83.30;;;;;;5031541;28;20302;-53
2023/08/31 11:48:30;;;;;;;5.28;1.83;;;21.90;82.70;;;;;;5032140;28;20379;-49
2023/08/31 11:50:56;;;;;;;3.55;1.90;;;22.20;81.80;;;;;;5031577;28;20049;-49
2023/08/31 11:53:22;;;;;;;3.85;1.85;;;21.90;84.00;;;;;;5029795;28;20064;-50
2023/08/31 11:55:52;;;;;;;3.85;1.70;;;21.90;82.70;;;;;;5032014;28;20022;-49
2023/08/31 11:58:17;;;;;;;3.08;1.90;;;22.30;82.00;;;;;;5032033;28;20097;-50
2023/08/31 12:00:44;;;;;;;3.13;1.80;;;23.50;79.80;;;;;;5031686;28;20104;-49
2023/08/31 12:03:09;;;;;;;2.88;1.60;;;23.90;79.70;;;;;;5046067;28;20053;-50
2023/08/31 12:05:45;;;;;;;2.42;1.60;;;24.80;80.00;;;;;;5031235;28;20052;-49
2023/08/31 12:08:11;;;;;;;4.63;2.20;;;24.60;77.00;;;;;;5027650;28;20334;-51
2023/08/31 12:10:41;;;;;;;4.03;1.83;;;23.20;79.40;;;;;;5022715;28;20100;-48
2023/08/31 12:13:13;;;;;;;4.68;2.45;;;23.40;81.20;;;;;;5034945;28;20392;-48
2023/08/31 12:15:39;;;;;;;3.47;2.05;;;22.90;80.90;;;;;;5027626;28;20061;-46
2023/08/31 12:18:12;;;;;;;4.13;2.30;;;23.30;81.10;;;;;;5030058;28;20055;-50
2023/08/31 12:20:48;;;;;;;7.53;2.67;;;23.60;81.90;;;;;;5029665;28;20037;-49
2023/08/31 12:23:16;;;;;;;3.80;2.33;;;23.60;82.40;;;;;;5029209;28;20050;-53
2023/08/31 12:25:49;;;;;;;5.25;2.55;;;23.90;83.20;;;;;;5029641;28;20060;-50
2023/08/31 12:28:19;;;;;;;4.43;2.20;;;23.10;77.20;;;;;;5045743;28;20112;-47
2023/08/31 12:30:50;;;;;;;5.22;3.78;;;23.10;80.40;;;;;;5031315;28;20021;-48
2023/08/31 12:33:16;;;;;;;3.05;2.50;;;22.90;78.70;;;;;;5030957;28;20025;-49
2023/08/31 12:35:42;;;;;;;6.07;2.90;;;22.70;78.50;;;;;;5028247;28;20034;-51
2023/08/31 12:38:07;;;;;;;3.13;2.55;;;22.30;80.30;;;;;;5023509;28;20047;-50
2023/08/31 12:40:33;;;;;;;3.63;2.80;;;22.70;83.80;;;;;;5024128;28;20088;-48
2023/08/31 12:42:59;;;;;;;2.30;2.10;;;22.80;78.90;;;;;;5023022;28;20034;-48
2023/08/31 12:45:24;;;;;;;3.42;2.42;;;22.00;81.60;;;;;;5022379;28;20018;-49
2023/08/31 12:47:50;;;;;;;3.10;2.50;;;21.50;80.20;;;;;;5023522;28;20024;-47
2023/08/31 12:50:15;;;;;;;4.88;3.03;;;21.40;83.00;;;;;;5028503;28;20049;-49
2023/08/31 12:52:45;;;;;;;3.40;2.50;;;21.90;84.30;;;;;;5030198;28;20029;-48
2023/08/31 12:55:14;;;;;;;4.15;2.60;;;22.20;80.00;;;;;;5022060;28;20076;-49
2023/08/31 12:57:43;;;;;;;3.17;2.20;;;22.10;81.60;;;;;;5027828;28;20034;-51
2023/08/31 13:00:13;;;;;;;3.00;2.50;;;21.80;79.60;;;;;;5030437;28;20037;-49
2023/08/31 13:02:40;;;;;;;5.10;2.70;;;21.70;80.40;;;;;;5022092;28;20381;-50
2023/08/31 13:05:09;;;;;;;4.20;3.00;;;21.50;81.20;;;;;;5015528;28;20022;-51
2023/08/31 13:07:37;;;;;;;4.15;2.45;;;21.50;82.60;;;;;;5015247;28;20021;-48
2023/08/31 13:10:06;;;;;;;3.20;2.35;;;21.60;81.90;;;;;;5016414;28;20025;-50
2023/08/31 13:12:32;;;;;;;3.13;2.15;;;21.50;82.90;;;;;;5017533;28;20511;-48
2023/08/31 13:14:58;;;;;;;4.10;2.17;;;21.40;80.80;;;;;;5016502;28;20108;-49
2023/08/31 13:17:27;;;;;;;3.30;2.30;;;21.40;83.50;;;;;;5018472;28;20045;-49
2023/08/31 13:19:54;;;;;;;3.17;2.08;;;21.40;82.60;;;;;;5016249;28;20093;-50
2023/08/31 13:22:20;;;;;;;4.10;2.00;;;21.20;82.30;;;;;;5017351;28;20445;-50
2023/08/31 13:24:46;;;;;;;1.98;1.60;;;20.80;85.20;;;;;;5016283;28;20022;-50
2023/08/31 13:27:13;;;;;;;2.88;1.40;;;20.50;84.60;;;;;;5016971;28;20123;-49
2023/08/31 13:29:38;;;;;;;1.48;1.10;;;20.10;88.40;;;;;;5016741;28;20025;-51
2023/08/31 13:32:05;;;;;;;2.22;1.30;;;19.70;86.50;;;;;;5030961;28;20025;-50
2023/08/31 13:34:30;;;;;;;2.67;1.42;;;19.40;89.00;;;;;;5017835;28;20061;-49
2023/08/31 13:36:56;;;;;;;2.30;1.63;;;19.10;90.00;;;;;;5016110;28;20018;-50
2023/08/31 13:39:23;;;;;;;2.30;1.50;;;18.80;90.40;;;;;;5007548;28;20651;-51
2023/08/31 13:41:51;;;;;;;3.78;1.92;;;18.60;91.50;;;;;;5027600;28;20029;-50
2023/08/31 13:44:17;;;;;;;2.45;1.77;;;18.50;91.60;;;;;;5029494;28;20033;-49